Time;durP1;ratioP1;P1;durP2;ratioP2;P2;SDS_P1;SDS_P2;PMS_P1;PMS_P2;Temp;Humidity;BMP_temperature;BMP_pressure;BME280_temperature;BME280_humidity;BME280_pressure;Samples;Min_cycle;Max_cycle;Signal;HPM_P1;HPM_P2
2022/08/28 00:00:43;;;;;;;;;;;;;;;21.89;58.48;101685.88;1021596;29;744;-67
2022/08/28 00:01:34;;;;;;;;;;;;;;;21.88;58.56;101693.19;1022034;29;622;-67
2022/08/28 00:02:24;;;;;;;;;;;;;;;21.88;58.46;101685.03;1021352;29;753;-67
2022/08/28 00:03:14;;;;;;;;;;;;;;;21.87;58.33;101687.91;1021413;29;624;-67
2022/08/28 00:04:05;;;;;;;;;;;;;;;21.88;58.36;101684.19;1022597;29;1421;-67
2022/08/28 00:04:55;;;;;;;;;;;;;;;21.86;58.44;101692.47;1024824;29;654;-67
2022/08/28 00:05:46;;;;;;;;;;;;;;;21.86;58.27;101691.63;1021147;29;669;-67
2022/08/28 00:06:36;;;;;;;;;;;;;;;21.83;58.23;101685.50;1021115;29;634;-67
2022/08/28 00:07:27;;;;;;;;;;;;;;;21.83;58.33;101692.81;1025770;28;667;-67
2022/08/28 00:08:17;;;;;;;;;;;;;;;21.86;58.41;101687.03;1025826;28;678;-67
2022/08/28 00:09:07;;;;;;;;;;;;;;;21.85;58.37;101687.22;1024866;29;698;-67
2022/08/28 00:09:58;;;;;;;;;;;;;;;21.82;58.50;101691.94;1024725;29;630;-67
2022/08/28 00:10:48;;;;;;;;;;;;;;;21.81;58.48;101692.94;1024884;29;732;-67
2022/08/28 00:11:39;;;;;;;;;;;;;;;21.82;58.44;101688.38;1024827;29;721;-67
2022/08/28 00:12:30;;;;;;;;;;;;;;;21.80;58.44;101687.66;1024736;29;603;-67
2022/08/28 00:13:20;;;;;;;;;;;;;;;21.82;58.30;101697.38;1024782;29;704;-67
2022/08/28 00:14:11;;;;;;;;;;;;;;;21.83;58.43;101692.81;1024471;29;1429;-67
2022/08/28 00:15:01;;;;;;;;;;;;;;;21.84;58.34;101686.38;1025386;29;729;-67
2022/08/28 00:15:52;;;;;;;;;;;;;;;21.83;58.49;101692.81;1025381;29;733;-67
2022/08/28 00:16:42;;;;;;;;;;;;;;;21.83;58.27;101692.81;1021656;29;642;-67
2022/08/28 00:17:33;;;;;;;;;;;;;;;21.81;58.37;101684.81;1021670;29;698;-67
2022/08/28 00:18:23;;;;;;;;;;;;;;;21.83;58.33;101692.81;1025177;29;613;-67
2022/08/28 00:19:13;;;;;;;;;;;;;;;21.82;58.21;101683.81;1025342;29;684;-67
2022/08/28 00:20:04;;;;;;;;;;;;;;;21.83;58.32;101690.09;1021615;29;725;-67
2022/08/28 00:20:55;;;;;;;;;;;;;;;21.81;57.85;101694.81;1020682;29;718;-67
2022/08/28 00:21:45;;;;;;;;;;;;;;;21.81;58.27;101692.94;1024670;29;647;-67
2022/08/28 00:22:37;;;;;;;;;;;;;;;21.81;58.40;101690.25;1025114;29;1433;-67
2022/08/28 00:23:27;;;;;;;;;;;;;;;21.82;58.27;101685.66;1025829;28;692;-67
2022/08/28 00:24:18;;;;;;;;;;;;;;;21.80;58.42;101684.97;1024658;29;647;-67
2022/08/28 00:25:08;;;;;;;;;;;;;;;21.79;58.44;101686.81;1024660;29;649;-67
2022/08/28 00:25:59;;;;;;;;;;;;;;;21.81;58.25;101692.09;1024864;29;669;-67
2022/08/28 00:27:54;;;;;;;;;;;;;;;21.83;58.15;101692.81;1031472;28;1250;-65
2022/08/28 00:28:44;;;;;;;;;;;;;;;21.84;58.27;101691.78;1032722;28;1970;-67
2022/08/28 00:29:34;;;;;;;;;;;;;;;21.79;58.37;101686.81;1032883;28;724;-65
2022/08/28 00:30:25;;;;;;;;;;;;;;;21.81;58.50;101697.53;1032802;28;697;-66
2022/08/28 00:31:16;;;;;;;;;;;;;;;21.80;58.30;101695.81;1032784;28;622;-67
2022/08/28 00:32:07;;;;;;;;;;;;;;;21.81;58.02;101684.81;1032750;28;698;-66
2022/08/28 00:32:58;;;;;;;;;;;;;;;21.81;58.36;101690.25;1029445;28;662;-66
2022/08/28 00:33:49;;;;;;;;;;;;;;;21.81;58.25;101682.09;1028738;28;677;-66
2022/08/28 00:34:39;;;;;;;;;;;;;;;21.80;58.28;101684.97;1029864;28;638;-66
2022/08/28 00:35:30;;;;;;;;;;;;;;;21.79;58.22;101686.81;1028310;28;642;-66
2022/08/28 00:36:20;;;;;;;;;;;;;;;21.78;58.21;101678.81;1028681;28;623;-66
2022/08/28 00:37:11;;;;;;;;;;;;;;;21.79;58.37;101685.97;1028691;28;725;-66
2022/08/28 00:38:01;;;;;;;;;;;;;;;21.78;58.16;101679.69;1028785;28;602;-67
2022/08/28 00:38:51;;;;;;;;;;;;;;;21.79;58.09;101678.69;1028849;28;642;-67
2022/08/28 00:39:42;;;;;;;;;;;;;;;21.79;58.24;101681.38;1028313;28;650;-66
2022/08/28 00:40:32;;;;;;;;;;;;;;;21.79;58.26;101683.25;1029484;28;677;-65
2022/08/28 00:41:25;;;;;;;;;;;;;;;21.76;58.31;101680.84;1029834;28;622;-66
2022/08/28 00:42:16;;;;;;;;;;;;;;;21.76;58.44;101678.13;1027495;28;683;-66
2022/08/28 00:43:06;;;;;;;;;;;;;;;21.77;58.32;101682.53;1032755;28;626;-66
2022/08/28 00:43:57;;;;;;;;;;;;;;;21.77;58.04;101683.41;1033195;28;771;-67
2022/08/28 00:44:47;;;;;;;;;;;;;;;21.79;58.11;101688.69;1033308;28;650;-66
2022/08/28 00:45:38;;;;;;;;;;;;;;;21.79;58.27;101680.53;1033236;28;698;-66
2022/08/28 00:46:28;;;;;;;;;;;;;;;21.77;58.33;101694.25;1033239;28;618;-67
2022/08/28 00:47:25;;;;;;;;;;;;;;;21.78;58.06;101682.41;1033311;28;669;-66
2022/08/28 00:48:15;;;;;;;;;;;;;;;21.76;58.22;101687.13;1031524;28;626;-66
2022/08/28 00:49:06;;;;;;;;;;;;;;;21.77;58.20;101690.69;1033269;28;701;-66
2022/08/28 00:49:56;;;;;;;;;;;;;;;21.77;58.59;101683.41;1031173;28;623;-66
2022/08/28 00:52:06;;;;;;;;;;;;;;;21.77;58.40;101690.69;1033274;28;707;-66
2022/08/28 00:52:57;;;;;;;;;;;;;;;21.76;58.31;101689.81;1028032;28;1362;-67
2022/08/28 00:53:47;;;;;;;;;;;;;;;21.75;58.17;101685.41;1029524;28;621;-66
2022/08/28 00:54:38;;;;;;;;;;;;;;;21.75;58.25;101688.13;1033145;28;1424;-67
2022/08/28 00:55:29;;;;;;;;;;;;;;;21.74;58.26;101683.69;1033227;28;689;-66
2022/08/28 00:56:19;;;;;;;;;;;;;;;21.74;58.21;101689.13;1032049;28;634;-66
2022/08/28 00:57:10;;;;;;;;;;;;;;;21.75;58.26;101693.53;1033244;28;654;-66
2022/08/28 00:58:00;;;;;;;;;;;;;;;21.75;58.18;101689.97;1033246;28;682;-66
2022/08/28 00:58:50;;;;;;;;;;;;;;;21.74;58.44;101688.28;1033260;28;674;-66
2022/08/28 00:59:41;;;;;;;;;;;;;;;21.72;58.50;101687.56;1030171;28;649;-66
2022/08/28 01:00:31;;;;;;;;;;;;;;;21.73;58.23;101683.84;1028299;28;634;-66
2022/08/28 01:01:22;;;;;;;;;;;;;;;21.74;58.36;101699.97;1032594;28;713;-66
2022/08/28 01:02:12;;;;;;;;;;;;;;;21.74;58.17;101694.56;1033194;28;693;-66
2022/08/28 01:03:03;;;;;;;;;;;;;;;21.72;58.41;101701.97;1033363;28;676;-66
2022/08/28 01:03:54;;;;;;;;;;;;;;;21.72;58.40;101696.56;1033224;28;626;-67
2022/08/28 01:04:44;;;;;;;;;;;;;;;21.73;58.69;101700.13;1032698;28;634;-66
2022/08/28 01:05:35;;;;;;;;;;;;;;;21.75;58.35;101696.25;1033365;28;713;-66
2022/08/28 01:06:25;;;;;;;;;;;;;;;21.75;58.47;101695.41;1031492;28;634;-66
2022/08/28 01:07:16;;;;;;;;;;;;;;;21.73;58.44;101697.41;1033303;28;658;-67
2022/08/28 01:08:06;;;;;;;;;;;;;;;21.74;58.63;101696.41;1033232;28;634;-66
2022/08/28 01:08:56;;;;;;;;;;;;;;;21.74;58.42;101702.69;1033084;28;1898;-67
2022/08/28 01:09:47;;;;;;;;;;;;;;;21.73;58.64;101698.28;1033328;28;740;-66
2022/08/28 01:10:37;;;;;;;;;;;;;;;21.72;58.97;101704.69;1033243;28;615;-65
2022/08/28 01:11:28;;;;;;;;;;;;;;;21.73;58.64;101692.84;1033228;28;650;-65
2022/08/28 01:12:18;;;;;;;;;;;;;;;21.73;58.82;101698.28;1033200;28;666;-66
2022/08/28 01:13:09;;;;;;;;;;;;;;;21.71;58.58;101686.72;1028142;28;685;-66
2022/08/28 01:13:59;;;;;;;;;;;;;;;21.71;58.83;101688.56;1028370;28;694;-66
2022/08/28 01:14:50;;;;;;;;;;;;;;;21.71;58.89;101691.28;1027563;28;1457;-66
2022/08/28 01:15:41;;;;;;;;;;;;;;;21.71;58.96;101692.13;1030917;28;1225;-66
2022/08/28 01:16:31;;;;;;;;;;;;;;;21.70;58.81;101692.28;1030610;28;1145;-66
2022/08/28 01:17:22;;;;;;;;;;;;;;;21.70;59.00;101690.41;1032023;28;1180;-66
2022/08/28 01:18:14;;;;;;;;;;;;;;;21.71;58.95;101694.84;1033619;28;1232;-66
2022/08/28 01:19:05;;;;;;;;;;;;;;;21.69;58.84;101694.13;1033021;28;1169;-66
2022/08/28 01:19:57;;;;;;;;;;;;;;;21.69;58.86;101694.13;1033674;28;1308;-66
2022/08/28 01:20:47;;;;;;;;;;;;;;;21.69;58.82;101691.44;1033599;28;1251;-66
2022/08/28 01:21:38;;;;;;;;;;;;;;;21.69;58.86;101690.56;1033042;28;1167;-66
2022/08/28 01:22:28;;;;;;;;;;;;;;;21.68;58.92;101684.28;1030529;28;1193;-66
2022/08/28 01:23:19;;;;;;;;;;;;;;;21.67;58.83;101685.31;1033141;28;1127;-66
2022/08/28 01:24:10;;;;;;;;;;;;;;;21.67;58.85;101685.31;1032421;28;1093;-65
2022/08/28 01:25:00;;;;;;;;;;;;;;;21.69;58.70;101686.00;1030790;28;1132;-66
2022/08/28 01:25:51;;;;;;;;;;;;;;;21.69;58.91;101688.72;1032417;28;1179;-66
2022/08/28 01:26:41;;;;;;;;;;;;;;;21.68;58.65;101689.72;1031368;28;1096;-66
2022/08/28 01:27:32;;;;;;;;;;;;;;;21.68;58.66;101689.72;1032789;28;1321;-66
2022/08/28 01:28:22;;;;;;;;;;;;;;;21.66;58.79;101691.75;1031460;28;1144;-66
2022/08/28 01:29:13;;;;;;;;;;;;;;;21.67;58.33;101692.63;1031574;28;1208;-66
2022/08/28 01:30:03;;;;;;;;;;;;;;;21.68;58.85;101694.28;1027874;28;1164;-66
2022/08/28 01:30:53;;;;;;;;;;;;;;;21.67;58.65;101687.19;1028655;28;1167;-66
2022/08/28 01:31:44;;;;;;;;;;;;;;;21.67;58.74;101689.91;1032169;28;1144;-66
2022/08/28 01:32:34;;;;;;;;;;;;;;;21.65;58.73;101690.03;1033548;28;1072;-66
2022/08/28 01:33:25;;;;;;;;;;;;;;;21.66;58.68;101691.75;1030722;28;1104;-66
2022/08/28 01:34:15;;;;;;;;;;;;;;;21.67;58.70;101693.47;1029959;28;1022;-66
2022/08/28 01:35:06;;;;;;;;;;;;;;;21.68;58.73;101688.88;1031548;28;1164;-66
2022/08/28 01:35:58;;;;;;;;;;;;;;;21.69;58.59;101693.28;1030589;28;1077;-66
2022/08/28 01:36:48;;;;;;;;;;;;;;;21.69;58.56;101694.13;1027928;28;1132;-67
2022/08/28 01:37:38;;;;;;;;;;;;;;;21.69;58.53;101701.44;1027813;28;1077;-66
2022/08/28 01:38:29;;;;;;;;;;;;;;;21.67;58.79;101689.91;1028038;28;1196;-66
2022/08/28 01:39:19;;;;;;;;;;;;;;;21.67;58.85;101692.63;1025630;28;1164;-66
2022/08/28 01:40:10;;;;;;;;;;;;;;;21.66;58.68;101697.19;1032432;28;1092;-66
2022/08/28 01:41:00;;;;;;;;;;;;;;;21.67;58.66;101692.63;1031223;28;1014;-66
2022/08/28 01:41:51;;;;;;;;;;;;;;;21.66;58.53;101691.75;1031455;28;1180;-66
2022/08/28 01:42:41;;;;;;;;;;;;;;;21.67;58.64;101684.47;1031077;28;1099;-66
2022/08/28 01:43:31;;;;;;;;;;;;;;;21.67;58.60;101688.03;1033158;28;1116;-66
2022/08/28 01:44:23;;;;;;;;;;;;;;;21.64;58.73;101691.06;1031328;28;1120;-66
2022/08/28 01:45:14;;;;;;;;;;;;;;;21.65;58.54;101692.75;1032487;28;1258;-66
2022/08/28 01:46:04;;;;;;;;;;;;;;;21.63;58.82;101692.06;1031609;28;1503;-66
2022/08/28 01:46:54;;;;;;;;;;;;;;;21.63;58.68;101686.63;1033013;28;1320;-66
2022/08/28 01:47:45;;;;;;;;;;;;;;;21.65;58.60;101692.75;1032308;28;1177;-66
2022/08/28 01:48:35;;;;;;;;;;;;;;;21.65;58.61;101692.75;1032195;28;1957;-66
2022/08/28 01:49:28;;;;;;;;;;;;;;;21.62;58.61;101698.47;1030725;28;1085;-66
2022/08/28 01:50:18;;;;;;;;;;;;;;;21.63;58.54;101691.19;1031254;28;1096;-65
2022/08/28 01:51:09;;;;;;;;;;;;;;;21.63;58.44;101694.75;1031709;28;1112;-66
2022/08/28 01:52:00;;;;;;;;;;;;;;;21.62;58.69;101692.19;1032552;28;1080;-66
2022/08/28 01:52:50;;;;;;;;;;;;;;;21.60;58.76;101686.91;1030988;28;1123;-66
2022/08/28 01:53:40;;;;;;;;;;;;;;;21.61;58.55;101694.06;1031802;28;1166;-65
2022/08/28 01:54:31;;;;;;;;;;;;;;;21.62;58.71;101692.19;1032872;28;1408;-66
2022/08/28 01:55:21;;;;;;;;;;;;;;;21.61;58.72;101695.91;1032747;28;1108;-66
2022/08/28 01:56:12;;;;;;;;;;;;;;;21.60;58.46;101689.63;1031446;28;1267;-66
2022/08/28 01:57:02;;;;;;;;;;;;;;;21.62;58.43;101695.78;1027935;28;1399;-66
2022/08/28 01:57:53;;;;;;;;;;;;;;;21.61;58.61;101694.06;1027764;28;1121;-65
2022/08/28 01:58:43;;;;;;;;;;;;;;;21.62;58.67;101695.78;1032233;28;1093;-67
2022/08/28 01:59:33;;;;;;;;;;;;;;;21.62;58.44;101695.78;1031091;28;1081;-67
2022/08/28 02:00:27;;;;;;;;;;;;;;;21.60;58.38;101692.34;1031448;28;1179;-66
2022/08/28 02:01:18;;;;;;;;;;;;;;;21.60;58.59;101689.63;1031126;28;1124;-66
2022/08/28 02:02:09;;;;;;;;;;;;;;;21.60;58.58;101692.34;1031229;28;1092;-66
2022/08/28 02:02:59;;;;;;;;;;;;;;;21.59;58.41;101693.34;1031149;28;1174;-66
2022/08/28 02:03:51;;;;;;;;;;;;;;;21.60;58.52;101696.91;1031796;28;1179;-66
2022/08/28 02:04:42;;;;;;;;;;;;;;;21.60;58.56;101692.34;1031395;28;1092;-66
2022/08/28 02:05:32;;;;;;;;;;;;;;;21.61;58.52;101687.78;1030869;28;1132;-66
2022/08/28 02:06:24;;;;;;;;;;;;;;;21.60;58.60;101694.22;1031274;28;1143;-67
2022/08/28 02:07:15;;;;;;;;;;;;;;;21.59;58.86;101696.06;1030415;28;1201;-66
2022/08/28 02:08:06;;;;;;;;;;;;;;;21.58;58.35;101693.50;1031423;28;1209;-66
2022/08/28 02:08:56;;;;;;;;;;;;;;;21.57;58.53;101692.66;1032927;28;1886;-67
2022/08/28 02:09:47;;;;;;;;;;;;;;;21.58;58.59;101694.34;1032475;28;1088;-67
2022/08/28 02:10:37;;;;;;;;;;;;;;;21.58;58.57;101693.50;1027991;28;1203;-66
2022/08/28 02:11:29;;;;;;;;;;;;;;;21.57;58.69;101700.78;1028089;28;1211;-66
2022/08/28 02:12:19;;;;;;;;;;;;;;;21.56;58.61;101699.06;1032448;28;688;-66
2022/08/28 02:13:10;;;;;;;;;;;;;;;21.58;58.40;101697.06;1031306;28;1447;-66
2022/08/28 02:14:01;;;;;;;;;;;;;;;21.57;58.42;101700.78;1031956;28;1163;-66
2022/08/28 02:14:51;;;;;;;;;;;;;;;21.55;58.50;101700.06;1027119;28;1403;-67
2022/08/28 02:15:42;;;;;;;;;;;;;;;21.56;58.48;101703.63;1027357;28;1279;-67
2022/08/28 02:16:32;;;;;;;;;;;;;;;21.56;58.69;101709.06;1033489;28;1220;-66
2022/08/28 02:17:23;;;;;;;;;;;;;;;21.60;58.43;101705.06;1031348;28;653;-66
2022/08/28 02:18:13;;;;;;;;;;;;;;;21.59;58.55;101706.06;1031877;28;598;-67
2022/08/28 02:19:04;;;;;;;;;;;;;;;21.58;58.48;101713.34;1032091;28;615;-66
2022/08/28 02:19:55;;;;;;;;;;;;;;;21.58;58.58;101705.19;1031740;28;750;-66
2022/08/28 02:20:45;;;;;;;;;;;;;;;21.58;58.26;101707.91;1031942;28;678;-66
2022/08/28 02:21:36;;;;;;;;;;;;;;;21.58;58.69;101704.34;1031318;28;1222;-67
2022/08/28 02:22:26;;;;;;;;;;;;;;;21.55;58.62;101707.34;1031944;28;1096;-66
2022/08/28 02:23:17;;;;;;;;;;;;;;;21.55;58.55;101708.22;1029238;28;1088;-66
2022/08/28 02:24:07;;;;;;;;;;;;;;;21.54;58.62;101711.06;1027675;28;1164;-65
2022/08/28 02:24:58;;;;;;;;;;;;;;;21.55;58.41;101710.06;1031294;28;1120;-66
2022/08/28 02:25:48;;;;;;;;;;;;;;;21.54;58.44;101709.22;1031453;28;1160;-66
2022/08/28 02:26:39;;;;;;;;;;;;;;;21.54;58.62;101709.22;1030137;28;1216;-68
2022/08/28 02:27:29;;;;;;;;;;;;;;;21.54;58.50;101709.22;1028003;28;1241;-68
2022/08/28 02:28:20;;;;;;;;;;;;;;;21.54;58.55;101702.94;1029045;28;1186;-66
2022/08/28 02:29:10;;;;;;;;;;;;;;;21.53;58.59;101707.50;1032704;28;1351;-66
2022/08/28 02:30:01;;;;;;;;;;;;;;;21.51;58.64;101708.66;1032848;28;1181;-66
2022/08/28 02:30:52;;;;;;;;;;;;;;;21.52;58.44;101711.22;1031981;28;1272;-66
2022/08/28 02:31:42;;;;;;;;;;;;;;;21.51;58.51;101711.38;1032488;28;1181;-65
2022/08/28 02:32:33;;;;;;;;;;;;;;;21.52;58.57;101703.09;1030209;28;1365;-66
2022/08/28 02:33:23;;;;;;;;;;;;;;;21.49;58.67;101706.13;1031665;28;1208;-66
2022/08/28 02:34:14;;;;;;;;;;;;;;;21.52;58.49;101705.78;1029797;28;1206;-67
2022/08/28 02:35:04;;;;;;;;;;;;;;;21.51;58.52;101704.09;1031149;28;1173;-65
2022/08/28 02:35:55;;;;;;;;;;;;;;;21.51;58.51;101708.66;1030989;28;1232;-66
2022/08/28 02:36:46;;;;;;;;;;;;;;;21.51;58.62;101704.09;1028032;28;1292;-66
2022/08/28 02:37:38;;;;;;;;;;;;;;;21.51;58.46;101709.50;1030275;28;1181;-66
2022/08/28 02:38:28;;;;;;;;;;;;;;;21.53;58.46;101707.50;1032720;28;1181;-66
2022/08/28 02:39:19;;;;;;;;;;;;;;;21.52;58.34;101704.94;1032953;28;1153;-66
2022/08/28 02:40:09;;;;;;;;;;;;;;;21.53;58.46;101703.94;1029149;28;1236;-66
2022/08/28 02:41:00;;;;;;;;;;;;;;;21.51;58.57;101701.38;1030695;28;1201;-66
2022/08/28 02:41:50;;;;;;;;;;;;;;;21.51;58.36;101701.38;1029387;28;1272;-66
2022/08/28 02:42:41;;;;;;;;;;;;;;;21.51;58.56;101698.66;1030782;28;1166;-66
2022/08/28 02:43:31;;;;;;;;;;;;;;;21.49;58.45;101700.69;1029641;28;1343;-66
2022/08/28 02:44:21;;;;;;;;;;;;;;;21.50;58.64;101705.09;1030759;28;1245;-66
2022/08/28 02:45:12;;;;;;;;;;;;;;;21.52;58.42;101705.78;1029810;28;1300;-67
2022/08/28 02:46:03;;;;;;;;;;;;;;;21.51;58.42;101704.09;1030438;28;1248;-66
2022/08/28 02:46:54;;;;;;;;;;;;;;;21.51;58.47;101712.22;1029610;28;1192;-66
2022/08/28 02:47:44;;;;;;;;;;;;;;;21.50;58.37;101707.78;1030935;28;1240;-66
2022/08/28 02:48:34;;;;;;;;;;;;;;;21.49;58.45;101711.53;1032799;28;1898;-66
2022/08/28 02:49:25;;;;;;;;;;;;;;;21.48;58.29;101710.69;1031190;28;1248;-66
2022/08/28 02:50:15;;;;;;;;;;;;;;;21.49;58.54;101711.53;1032960;28;1185;-66
2022/08/28 02:51:06;;;;;;;;;;;;;;;21.49;58.41;101711.53;1031240;28;1173;-66
2022/08/28 02:51:56;;;;;;;;;;;;;;;21.47;58.41;101705.41;1032994;28;1284;-66
2022/08/28 02:52:47;;;;;;;;;;;;;;;21.48;58.53;101715.25;1032117;28;1178;-66
2022/08/28 02:53:38;;;;;;;;;;;;;;;21.47;58.29;101713.53;1032440;28;662;-66
2022/08/28 02:54:28;;;;;;;;;;;;;;;21.48;58.43;101715.25;1032503;28;638;-66
2022/08/28 02:55:18;;;;;;;;;;;;;;;21.48;58.48;101712.53;1032503;28;694;-66
2022/08/28 02:56:09;;;;;;;;;;;;;;;21.49;58.44;101714.25;1032721;28;666;-66
2022/08/28 02:56:59;;;;;;;;;;;;;;;21.49;58.34;101716.97;1032488;28;943;-66
2022/08/28 02:57:50;;;;;;;;;;;;;;;21.47;58.41;101711.69;1032661;28;665;-66
2022/08/28 02:58:40;;;;;;;;;;;;;;;21.47;58.32;101710.84;1033710;28;731;-65
2022/08/28 02:59:31;;;;;;;;;;;;;;;21.47;58.37;101716.25;1032598;28;670;-67
2022/08/28 03:00:21;;;;;;;;;;;;;;;21.44;58.36;101714.69;1032399;28;713;-67
2022/08/28 03:01:12;;;;;;;;;;;;;;;21.45;58.34;101720.97;1032405;28;1447;-66
2022/08/28 03:02:03;;;;;;;;;;;;;;;21.46;58.55;101714.53;1032552;28;674;-66
2022/08/28 03:02:53;;;;;;;;;;;;;;;21.44;58.39;101714.69;1032093;28;642;-65
2022/08/28 03:03:44;;;;;;;;;;;;;;;21.42;58.33;101719.41;1032759;28;698;-66
2022/08/28 03:04:34;;;;;;;;;;;;;;;21.44;58.56;101709.28;1028730;28;693;-67
2022/08/28 03:05:25;;;;;;;;;;;;;;;21.45;58.44;101710.13;1029300;28;670;-67
2022/08/28 03:06:16;;;;;;;;;;;;;;;21.45;58.33;101710.13;1033151;28;697;-67
2022/08/28 03:07:08;;;;;;;;;;;;;;;21.44;58.57;101711.13;1031913;28;615;-67
2022/08/28 03:07:58;;;;;;;;;;;;;;;21.44;58.37;101714.69;1031903;28;690;-67
2022/08/28 03:08:49;;;;;;;;;;;;;;;21.44;58.19;101709.28;1032052;28;1961;-67
2022/08/28 03:09:40;;;;;;;;;;;;;;;21.43;57.89;101718.41;1031761;28;623;-67
2022/08/28 03:10:30;;;;;;;;;;;;;;;21.44;58.30;101716.56;1032502;28;681;-67
2022/08/28 03:11:22;;;;;;;;;;;;;;;21.44;58.18;101708.41;1031894;28;1463;-68
2022/08/28 03:12:13;;;;;;;;;;;;;;;21.42;58.36;101705.00;1032408;28;685;-67
2022/08/28 03:13:04;;;;;;;;;;;;;;;21.43;58.38;101715.69;1032455;28;650;-68
2022/08/28 03:13:55;;;;;;;;;;;;;;;21.42;58.53;101711.28;1032579;28;626;-67
2022/08/28 03:14:45;;;;;;;;;;;;;;;21.42;58.40;101715.84;1033605;28;724;-67
2022/08/28 03:15:37;;;;;;;;;;;;;;;21.42;58.51;101724.84;1033605;28;657;-65
2022/08/28 03:16:27;;;;;;;;;;;;;;;21.44;58.24;101708.41;1033009;28;690;-67
2022/08/28 03:17:17;;;;;;;;;;;;;;;21.42;58.37;101713.97;1033566;28;626;-67
2022/08/28 03:18:08;;;;;;;;;;;;;;;21.43;58.43;101715.69;1033623;28;654;-67
2022/08/28 03:18:58;;;;;;;;;;;;;;;21.43;58.33;101710.28;1033013;28;636;-67
2022/08/28 03:19:49;;;;;;;;;;;;;;;21.43;58.42;101718.41;1033580;28;694;-65
2022/08/28 03:20:39;;;;;;;;;;;;;;;21.43;58.17;101712.97;1033633;28;705;-67
2022/08/28 03:21:29;;;;;;;;;;;;;;;21.44;58.13;101719.25;1033441;28;1396;-66
2022/08/28 03:23:25;;;;;;;;;;;;;;;21.43;58.06;101714.84;1032066;28;646;-66
2022/08/28 03:23:33;;;;;;;;;;;;;;;21.43;58.33;101721.13;1032122;28;1594;-66
2022/08/28 03:24:24;;;;;;;;;;;;;;;21.40;58.20;101718.69;1031969;28;709;-66
2022/08/28 03:25:16;;;;;;;;;;;;;;;21.40;58.34;101717.84;1031761;28;686;-66
2022/08/28 03:26:06;;;;;;;;;;;;;;;21.41;58.33;101720.41;1031862;28;1044;-66
2022/08/28 03:26:57;;;;;;;;;;;;;;;21.41;58.25;101716.84;1032004;28;674;-66
2022/08/28 03:27:47;;;;;;;;;;;;;;;21.40;58.30;101718.69;1027839;28;694;-66
2022/08/28 03:28:38;;;;;;;;;;;;;;;21.40;58.08;101720.56;1028460;28;1977;-66
2022/08/28 03:29:28;;;;;;;;;;;;;;;21.41;58.27;101719.56;1024197;29;639;-66
2022/08/28 03:30:19;;;;;;;;;;;;;;;21.40;58.15;101723.25;1025639;28;698;-66
2022/08/28 03:31:09;;;;;;;;;;;;;;;21.40;58.07;101723.25;1029186;28;812;-66
2022/08/28 03:31:59;;;;;;;;;;;;;;;21.40;58.21;101720.56;1024614;29;629;-66
2022/08/28 03:32:50;;;;;;;;;;;;;;;21.39;58.22;101718.84;1026095;28;646;-66
2022/08/28 03:33:40;;;;;;;;;;;;;;;21.40;58.22;101723.25;1024982;29;639;-66
2022/08/28 03:34:32;;;;;;;;;;;;;;;21.39;58.29;101726.97;1024992;29;1006;-67
2022/08/28 03:35:22;;;;;;;;;;;;;;;21.39;58.42;101726.97;1026381;28;630;-65
2022/08/28 03:36:13;;;;;;;;;;;;;;;21.39;58.29;101721.56;1026251;28;630;-67
2022/08/28 03:37:03;;;;;;;;;;;;;;;21.39;58.28;101716.13;1026305;28;739;-67
2022/08/28 03:37:54;;;;;;;;;;;;;;;21.36;58.34;101708.28;1025009;29;615;-65
2022/08/28 03:38:44;;;;;;;;;;;;;;;21.35;58.22;101710.16;1024989;29;670;-66
2022/08/28 03:39:35;;;;;;;;;;;;;;;21.37;58.22;101712.72;1024466;29;697;-67
2022/08/28 03:40:25;;;;;;;;;;;;;;;21.36;58.28;101708.28;1025798;28;850;-67
2022/08/28 03:41:16;;;;;;;;;;;;;;;21.37;58.13;101708.16;1025731;28;704;-67
2022/08/28 03:42:06;;;;;;;;;;;;;;;21.39;58.18;101710.72;1026791;28;859;-66
2022/08/28 03:42:57;;;;;;;;;;;;;;;21.39;58.11;101719.69;1026653;28;672;-65
2022/08/28 03:43:47;;;;;;;;;;;;;;;21.35;58.14;101717.44;1026758;28;642;-66
2022/08/28 03:44:37;;;;;;;;;;;;;;;21.36;58.18;101716.44;1026633;28;720;-66
2022/08/28 03:45:28;;;;;;;;;;;;;;;21.35;58.18;101722.84;1026574;28;689;-66
2022/08/28 03:46:18;;;;;;;;;;;;;;;21.35;58.22;101725.56;1026652;28;629;-66
2022/08/28 03:47:11;;;;;;;;;;;;;;;21.34;58.24;101724.69;1026634;28;673;-66
2022/08/28 03:48:02;;;;;;;;;;;;;;;21.33;58.44;101731.13;1026096;28;614;-66
2022/08/28 03:48:53;;;;;;;;;;;;;;;21.32;58.32;101725.84;1021662;29;1950;-67
2022/08/28 03:49:44;;;;;;;;;;;;;;;21.31;58.22;101726.88;1021241;29;807;-65
2022/08/28 03:50:34;;;;;;;;;;;;;;;21.31;58.41;101718.75;1024812;29;620;-66
2022/08/28 03:51:25;;;;;;;;;;;;;;;21.33;58.47;101722.13;1027108;28;1470;-66
2022/08/28 03:52:15;;;;;;;;;;;;;;;21.34;58.39;101726.56;1028288;28;709;-66
2022/08/28 03:53:05;;;;;;;;;;;;;;;21.35;58.22;101725.56;1031746;28;1380;-66
2022/08/28 03:53:56;;;;;;;;;;;;;;;21.35;58.09;101726.41;1033019;28;630;-67
2022/08/28 03:54:46;;;;;;;;;;;;;;;21.36;58.21;101716.44;1032921;28;638;-67
2022/08/28 03:55:37;;;;;;;;;;;;;;;21.32;58.46;101720.44;1032958;28;676;-67
2022/08/28 03:56:27;;;;;;;;;;;;;;;21.31;58.14;101722.31;1032835;28;619;-67
2022/08/28 03:57:18;;;;;;;;;;;;;;;21.31;58.15;101724.16;1032968;28;658;-67
2022/08/28 03:58:09;;;;;;;;;;;;;;;21.30;58.25;101723.31;1032858;28;646;-67
2022/08/28 03:58:59;;;;;;;;;;;;;;;21.34;58.30;101723.84;1034056;28;720;-67
2022/08/28 03:59:50;;;;;;;;;;;;;;;21.34;58.26;101729.28;1031798;28;1536;-67
2022/08/28 04:00:40;;;;;;;;;;;;;;;21.31;58.44;101724.16;1028218;28;635;-67
2022/08/28 04:01:32;;;;;;;;;;;;;;;21.30;58.46;101730.59;1028958;28;677;-68
2022/08/28 04:02:22;;;;;;;;;;;;;;;21.30;58.34;101727.88;1028905;28;685;-66
2022/08/28 04:03:13;;;;;;;;;;;;;;;21.31;58.40;101726.88;1027982;28;607;-67
2022/08/28 04:04:03;;;;;;;;;;;;;;;21.30;58.31;101727.88;1028081;28;717;-66
2022/08/28 04:04:53;;;;;;;;;;;;;;;21.30;58.41;101733.31;1028246;28;618;-66
2022/08/28 04:05:44;;;;;;;;;;;;;;;21.29;58.33;101735.16;1028360;28;706;-67
2022/08/28 04:06:34;;;;;;;;;;;;;;;21.26;58.41;101731.88;1028351;28;652;-67
2022/08/28 04:07:25;;;;;;;;;;;;;;;21.27;58.51;101736.31;1028333;28;678;-66
2022/08/28 04:08:15;;;;;;;;;;;;;;;21.27;58.50;101737.16;1024451;29;650;-66
2022/08/28 04:09:06;;;;;;;;;;;;;;;21.28;58.30;101735.31;1024530;29;1887;-66
2022/08/28 04:09:56;;;;;;;;;;;;;;;21.25;58.31;101738.31;1029115;28;1366;-66
2022/08/28 04:10:46;;;;;;;;;;;;;;;21.25;58.40;101735.59;1031150;28;692;-66
2022/08/28 04:11:37;;;;;;;;;;;;;;;21.25;58.35;101744.59;1031030;28;642;-66
2022/08/28 04:12:27;;;;;;;;;;;;;;;21.27;58.21;101739.03;1031121;28;645;-66
2022/08/28 04:13:18;;;;;;;;;;;;;;;21.27;58.22;101748.00;1025327;28;661;-66
2022/08/28 04:14:08;;;;;;;;;;;;;;;21.29;58.15;101747.88;1025578;28;670;-66
2022/08/28 04:14:59;;;;;;;;;;;;;;;21.27;58.29;101749.88;1029380;28;641;-67
2022/08/28 04:15:49;;;;;;;;;;;;;;;21.27;58.42;101749.88;1029970;28;625;-66
2022/08/28 04:16:40;;;;;;;;;;;;;;;21.27;58.22;101752.56;1031090;28;700;-66
2022/08/28 04:17:30;;;;;;;;;;;;;;;21.27;58.20;101749.88;1031192;28;614;-66
2022/08/28 04:18:21;;;;;;;;;;;;;;;21.27;58.28;101749.88;1030991;28;653;-66
2022/08/28 04:19:11;;;;;;;;;;;;;;;21.27;58.51;101745.28;1025675;28;646;-66
2022/08/28 04:20:01;;;;;;;;;;;;;;;21.26;58.17;101748.16;1025560;28;1445;-66
2022/08/28 04:20:52;;;;;;;;;;;;;;;21.25;58.24;101749.16;1030445;28;656;-66
2022/08/28 04:21:43;;;;;;;;;;;;;;;21.25;58.26;101744.59;1028177;28;633;-66
2022/08/28 04:22:33;;;;;;;;;;;;;;;21.26;58.12;101749.00;1028774;28;683;-66
2022/08/28 04:23:23;;;;;;;;;;;;;;;21.26;58.09;101748.16;1028111;28;638;-66
2022/08/28 04:24:14;;;;;;;;;;;;;;;21.25;58.37;101752.72;1028300;28;683;-66
2022/08/28 04:25:04;;;;;;;;;;;;;;;21.24;58.23;101750.16;1028174;28;714;-66
2022/08/28 04:25:55;;;;;;;;;;;;;;;21.25;58.24;101749.16;1024479;29;665;-66
2022/08/28 04:26:45;;;;;;;;;;;;;;;21.24;58.14;101755.56;1025665;28;744;-66
2022/08/28 04:27:36;;;;;;;;;;;;;;;21.23;58.21;101743.88;1031883;28;1274;-66
2022/08/28 04:28:26;;;;;;;;;;;;;;;21.23;58.27;101753.88;1031919;28;661;-66